createdAt,value
2023-09-29T00:00:04.982Z,0
2023-09-29T00:16:01.728Z,0
2023-09-29T00:31:02.424Z,0
2023-09-29T00:46:03.472Z,0
2023-09-29T01:00:04.599Z,0
2023-09-29T01:16:00.703Z,0
2023-09-29T01:31:01.649Z,0
2023-09-29T01:46:02.863Z,0
2023-09-29T02:00:03.931Z,0
2023-09-29T02:16:05.093Z,0
2023-09-29T02:31:01.153Z,0
2023-09-29T02:46:02.476Z,0
2023-09-29T03:00:03.318Z,0
2023-09-29T03:16:04.313Z,0
2023-09-29T03:31:05.296Z,0
2023-09-29T03:46:01.442Z,0
2023-09-29T04:00:02.603Z,0
2023-09-29T04:16:03.665Z,0
2023-09-29T04:31:04.758Z,0
2023-09-29T04:46:00.801Z,0
2023-09-29T05:00:01.779Z,0
2023-09-29T05:16:03.062Z,7
2023-09-29T05:31:04.498Z,20
2023-09-29T05:46:00.815Z,34
2023-09-29T06:00:01.683Z,38
2023-09-29T06:16:02.934Z,41
2023-09-29T06:31:04.008Z,81
2023-09-29T06:46:05.089Z,191
2023-09-29T07:00:01.116Z,218
2023-09-29T07:16:02.140Z,254
2023-09-29T07:31:03.472Z,292
2023-09-29T07:46:04.417Z,328
2023-09-29T08:00:05.311Z,363
2023-09-29T08:16:01.376Z,402
2023-09-29T08:31:02.917Z,442
2023-09-29T08:46:03.874Z,474
2023-09-29T09:00:05.264Z,502
2023-09-29T09:16:00.970Z,527
2023-09-29T09:31:02.376Z,548
2023-09-29T09:46:03.577Z,565
2023-09-29T10:00:04.442Z,582
2023-09-29T10:16:14.139Z,595
2023-09-29T10:31:01.571Z,603
2023-09-29T10:46:02.715Z,610
2023-09-29T11:00:03.965Z,612
2023-09-29T11:16:05.061Z,611
2023-09-29T11:31:01.409Z,607
2023-09-29T11:46:02.632Z,598
2023-09-29T12:00:03.542Z,588
2023-09-29T12:16:04.593Z,576
2023-09-29T12:31:00.590Z,560
2023-09-29T12:46:01.756Z,539
2023-09-29T13:00:02.854Z,519
2023-09-29T13:16:04.178Z,492
2023-09-29T13:31:05.243Z,462
2023-09-29T13:46:01.132Z,432
2023-09-29T14:00:02.228Z,406
2023-09-29T14:16:03.269Z,370
2023-09-29T14:31:04.434Z,332
2023-09-29T14:46:00.425Z,294
2023-09-29T15:00:01.292Z,256
2023-09-29T15:16:02.533Z,212
2023-09-29T15:31:03.940Z,132
2023-09-29T15:46:04.899Z,45
2023-09-29T16:00:00.722Z,30
2023-09-29T16:16:01.804Z,24
2023-09-29T16:31:02.972Z,17
2023-09-29T16:46:04.208Z,10
2023-09-29T17:00:05.196Z,3
2023-09-29T17:16:01.302Z,0
2023-09-29T17:31:02.604Z,0
2023-09-29T17:46:03.731Z,0
2023-09-29T18:00:04.750Z,0
2023-09-29T18:16:00.985Z,0
2023-09-29T18:31:02.004Z,0
2023-09-29T18:46:03.149Z,0
2023-09-29T19:00:04.259Z,0
2023-09-29T19:16:00.282Z,0
2023-09-29T19:31:01.242Z,0
2023-09-29T19:46:02.339Z,0
2023-09-29T20:00:03.606Z,0
2023-09-29T20:16:04.818Z,0
2023-09-29T20:31:00.770Z,0
2023-09-29T20:46:01.880Z,0
2023-09-29T21:00:03.319Z,0
2023-09-29T21:16:04.390Z,0
2023-09-29T21:31:00.443Z,0
2023-09-29T21:46:01.667Z,0
2023-09-29T22:00:02.769Z,0
2023-09-29T22:16:04.029Z,0
2023-09-29T22:31:05.143Z,0
2023-09-29T22:46:01.235Z,0
2023-09-29T23:00:02.096Z,0
2023-09-29T23:16:03.799Z,0
2023-09-29T23:31:04.762Z,0
2023-09-29T23:46:00.860Z,0
